sensor_id;sensor_type;location;lat;lon;timestamp;pressure;altitude;pressure_sealevel;temperature;humidity
16777;BME280;8505;49.456;8.164;2023-04-20T00:00:37;99871.31;;;5.13;61.24
16777;BME280;8505;49.456;8.164;2023-04-20T00:03:04;99863.66;;;5.40;60.06
16777;BME280;8505;49.456;8.164;2023-04-20T00:05:35;99865.16;;;5.33;60.72
16777;BME280;8505;49.456;8.164;2023-04-20T00:08:03;99854.53;;;5.44;60.31
16777;BME280;8505;49.456;8.164;2023-04-20T00:10:31;99859.97;;;5.12;61.64
16777;BME280;8505;49.456;8.164;2023-04-20T00:12:59;99856.00;;;5.18;61.60
16777;BME280;8505;49.456;8.164;2023-04-20T00:15:26;99856.31;;;5.24;61.03
16777;BME280;8505;49.456;8.164;2023-04-20T00:17:55;99847.56;;;5.14;61.48
16777;BME280;8505;49.456;8.164;2023-04-20T00:20:23;99842.13;;;5.06;61.52
16777;BME280;8505;49.456;8.164;2023-04-20T00:22:52;99838.19;;;4.81;62.94
16777;BME280;8505;49.456;8.164;2023-04-20T00:25:20;99835.75;;;4.59;63.64
16777;BME280;8505;49.456;8.164;2023-04-20T00:27:47;99826.41;;;4.36;65.08
16777;BME280;8505;49.456;8.164;2023-04-20T00:30:15;99832.16;;;4.30;65.72
16777;BME280;8505;49.456;8.164;2023-04-20T00:32:48;99822.06;;;4.25;66.39
16777;BME280;8505;49.456;8.164;2023-04-20T00:35:16;99828.63;;;4.20;66.34
16777;BME280;8505;49.456;8.164;2023-04-20T00:37:44;99831.41;;;4.18;66.66
16777;BME280;8505;49.456;8.164;2023-04-20T00:40:13;99822.72;;;4.18;66.67
16777;BME280;8505;49.456;8.164;2023-04-20T00:42:41;99823.03;;;4.24;66.69
16777;BME280;8505;49.456;8.164;2023-04-20T00:45:09;99829.78;;;4.27;66.25
16777;BME280;8505;49.456;8.164;2023-04-20T00:47:37;99816.44;;;4.30;65.79
16777;BME280;8505;49.456;8.164;2023-04-20T00:50:06;99811.91;;;4.32;66.29
16777;BME280;8505;49.456;8.164;2023-04-20T00:52:34;99812.81;;;4.00;67.95
16777;BME280;8505;49.456;8.164;2023-04-20T00:55:03;99808.47;;;4.11;67.18
16777;BME280;8505;49.456;8.164;2023-04-20T00:57:33;99801.94;;;4.26;66.28
16777;BME280;8505;49.456;8.164;2023-04-20T01:00:02;99798.09;;;4.30;65.97
16777;BME280;8505;49.456;8.164;2023-04-20T01:02:34;99794.75;;;4.28;66.07
16777;BME280;8505;49.456;8.164;2023-04-20T01:05:02;99779.81;;;4.19;65.94
16777;BME280;8505;49.456;8.164;2023-04-20T01:07:30;99780.53;;;4.00;67.23
16777;BME280;8505;49.456;8.164;2023-04-20T01:09:57;99788.47;;;3.89;68.15
16777;BME280;8505;49.456;8.164;2023-04-20T01:12:25;99782.88;;;4.03;67.37
16777;BME280;8505;49.456;8.164;2023-04-20T01:14:54;99774.03;;;3.94;67.17
16777;BME280;8505;49.456;8.164;2023-04-20T01:17:22;99772.88;;;3.87;67.28
16777;BME280;8505;49.456;8.164;2023-04-20T01:19:50;99773.91;;;3.75;67.84
16777;BME280;8505;49.456;8.164;2023-04-20T01:22:19;99776.69;;;3.62;68.49
16777;BME280;8505;49.456;8.164;2023-04-20T01:24:47;99776.44;;;3.86;68.28
16777;BME280;8505;49.456;8.164;2023-04-20T01:27:15;99768.09;;;3.92;67.79
16777;BME280;8505;49.456;8.164;2023-04-20T01:29:44;99764.44;;;3.84;67.81
16777;BME280;8505;49.456;8.164;2023-04-20T01:32:12;99759.59;;;4.00;67.20
16777;BME280;8505;49.456;8.164;2023-04-20T01:34:40;99757.91;;;3.99;66.65
16777;BME280;8505;49.456;8.164;2023-04-20T01:37:08;99757.03;;;3.89;67.43
16777;BME280;8505;49.456;8.164;2023-04-20T01:39:38;99745.47;;;4.52;63.78
16777;BME280;8505;49.456;8.164;2023-04-20T01:42:06;99743.66;;;4.93;62.09
16777;BME280;8505;49.456;8.164;2023-04-20T01:44:34;99738.25;;;4.84;62.38
16777;BME280;8505;49.456;8.164;2023-04-20T01:47:02;99737.72;;;4.91;62.41
16777;BME280;8505;49.456;8.164;2023-04-20T01:49:30;99739.13;;;5.04;61.84
16777;BME280;8505;49.456;8.164;2023-04-20T01:51:58;99735.78;;;4.93;61.59
16777;BME280;8505;49.456;8.164;2023-04-20T01:54:25;99733.19;;;5.12;60.83
16777;BME280;8505;49.456;8.164;2023-04-20T01:56:54;99738.31;;;5.23;60.70
16777;BME280;8505;49.456;8.164;2023-04-20T01:59:23;99730.44;;;5.42;59.86
16777;BME280;8505;49.456;8.164;2023-04-20T02:01:50;99726.41;;;5.57;59.33
16777;BME280;8505;49.456;8.164;2023-04-20T02:04:19;99730.16;;;5.45;59.33
16777;BME280;8505;49.456;8.164;2023-04-20T02:06:47;99721.72;;;5.61;58.99
16777;BME280;8505;49.456;8.164;2023-04-20T02:09:15;99719.34;;;5.58;59.59
16777;BME280;8505;49.456;8.164;2023-04-20T02:11:43;99716.59;;;5.59;59.25
16777;BME280;8505;49.456;8.164;2023-04-20T02:14:12;99721.44;;;5.45;59.46
16777;BME280;8505;49.456;8.164;2023-04-20T02:16:40;99719.75;;;5.63;59.53
16777;BME280;8505;49.456;8.164;2023-04-20T02:19:09;99711.34;;;5.59;59.22
16777;BME280;8505;49.456;8.164;2023-04-20T02:21:36;99712.56;;;5.75;59.11
16777;BME280;8505;49.456;8.164;2023-04-20T02:24:05;99713.97;;;5.59;59.84
16777;BME280;8505;49.456;8.164;2023-04-20T02:26:33;99712.88;;;5.52;59.54
16777;BME280;8505;49.456;8.164;2023-04-20T02:29:01;99719.78;;;5.53;60.11
16777;BME280;8505;49.456;8.164;2023-04-20T02:31:30;99708.56;;;5.70;59.51
16777;BME280;8505;49.456;8.164;2023-04-20T02:33:57;99707.19;;;5.66;58.95
16777;BME280;8505;49.456;8.164;2023-04-20T02:36:25;99705.50;;;5.75;58.87
16777;BME280;8505;49.456;8.164;2023-04-20T02:38:53;99707.84;;;5.78;59.21
16777;BME280;8505;49.456;8.164;2023-04-20T02:41:21;99699.59;;;5.54;60.33
16777;BME280;8505;49.456;8.164;2023-04-20T02:43:48;99696.56;;;5.20;61.67
16777;BME280;8505;49.456;8.164;2023-04-20T02:46:16;99689.69;;;5.00;62.36
16777;BME280;8505;49.456;8.164;2023-04-20T02:48:45;99696.44;;;5.21;61.53
16777;BME280;8505;49.456;8.164;2023-04-20T02:51:13;99692.16;;;5.20;61.83
16777;BME280;8505;49.456;8.164;2023-04-20T02:53:41;99697.16;;;5.23;61.62
16777;BME280;8505;49.456;8.164;2023-04-20T02:56:08;99686.47;;;5.25;61.44
16777;BME280;8505;49.456;8.164;2023-04-20T02:58:36;99691.34;;;5.29;61.31
16777;BME280;8505;49.456;8.164;2023-04-20T03:01:04;99687.31;;;5.35;61.39
16777;BME280;8505;49.456;8.164;2023-04-20T03:03:32;99688.41;;;5.13;62.01
16777;BME280;8505;49.456;8.164;2023-04-20T03:06:02;99683.16;;;5.13;61.90
16777;BME280;8505;49.456;8.164;2023-04-20T03:08:29;99685.53;;;5.26;62.00
16777;BME280;8505;49.456;8.164;2023-04-20T03:10:57;99681.50;;;5.41;61.30
16777;BME280;8505;49.456;8.164;2023-04-20T03:13:25;99676.13;;;5.33;61.51
16777;BME280;8505;49.456;8.164;2023-04-20T03:15:52;99673.22;;;5.36;61.18
16777;BME280;8505;49.456;8.164;2023-04-20T03:18:20;99671.28;;;5.48;61.14
16777;BME280;8505;49.456;8.164;2023-04-20T03:20:48;99668.81;;;5.17;62.50
16777;BME280;8505;49.456;8.164;2023-04-20T03:23:17;99670.72;;;5.25;62.17
16777;BME280;8505;49.456;8.164;2023-04-20T03:25:45;99667.44;;;5.23;62.40
16777;BME280;8505;49.456;8.164;2023-04-20T03:28:12;99671.59;;;5.16;63.27
16777;BME280;8505;49.456;8.164;2023-04-20T03:30:40;99670.72;;;5.25;63.11
16777;BME280;8505;49.456;8.164;2023-04-20T03:33:08;99675.47;;;5.12;63.35
16777;BME280;8505;49.456;8.164;2023-04-20T03:35:36;99659.16;;;4.99;64.75
16777;BME280;8505;49.456;8.164;2023-04-20T03:38:04;99661.91;;;4.97;64.12
16777;BME280;8505;49.456;8.164;2023-04-20T03:40:34;99658.75;;;4.94;64.59
16777;BME280;8505;49.456;8.164;2023-04-20T03:43:01;99658.84;;;4.82;64.07
16777;BME280;8505;49.456;8.164;2023-04-20T03:45:29;99654.09;;;4.38;66.19
16777;BME280;8505;49.456;8.164;2023-04-20T03:47:56;99662.16;;;4.65;65.36
16777;BME280;8505;49.456;8.164;2023-04-20T03:50:24;99657.72;;;4.75;65.47
16777;BME280;8505;49.456;8.164;2023-04-20T03:52:52;99654.56;;;4.81;65.54
16777;BME280;8505;49.456;8.164;2023-04-20T03:55:20;99652.38;;;5.15;63.77
16777;BME280;8505;49.456;8.164;2023-04-20T03:57:49;99656.66;;;5.16;63.32
16777;BME280;8505;49.456;8.164;2023-04-20T04:00:16;99660.00;;;5.18;63.24
16777;BME280;8505;49.456;8.164;2023-04-20T04:02:44;99653.47;;;5.22;63.11
16777;BME280;8505;49.456;8.164;2023-04-20T04:05:12;99651.69;;;5.13;63.37
16777;BME280;8505;49.456;8.164;2023-04-20T04:07:40;99657.63;;;5.35;62.63
16777;BME280;8505;49.456;8.164;2023-04-20T04:10:08;99648.91;;;5.15;63.16
16777;BME280;8505;49.456;8.164;2023-04-20T04:12:36;99648.66;;;5.08;63.03
16777;BME280;8505;49.456;8.164;2023-04-20T04:15:07;99653.34;;;5.05;63.16
16777;BME280;8505;49.456;8.164;2023-04-20T04:17:35;99653.75;;;4.91;63.50
16777;BME280;8505;49.456;8.164;2023-04-20T04:20:03;99645.63;;;5.03;63.49
16777;BME280;8505;49.456;8.164;2023-04-20T04:22:33;99652.66;;;5.22;63.41
16777;BME280;8505;49.456;8.164;2023-04-20T04:25:01;99654.28;;;5.42;62.32
16777;BME280;8505;49.456;8.164;2023-04-20T04:27:28;99647.25;;;5.33;62.11
16777;BME280;8505;49.456;8.164;2023-04-20T04:30:00;99652.22;;;5.36;62.44
16777;BME280;8505;49.456;8.164;2023-04-20T04:32:30;99655.81;;;5.25;63.41
16777;BME280;8505;49.456;8.164;2023-04-20T04:35:00;99654.69;;;5.38;62.47
16777;BME280;8505;49.456;8.164;2023-04-20T04:37:27;99655.94;;;5.34;63.31
16777;BME280;8505;49.456;8.164;2023-04-20T04:39:55;99648.22;;;5.22;62.85
16777;BME280;8505;49.456;8.164;2023-04-20T04:42:24;99647.53;;;5.30;63.28
16777;BME280;8505;49.456;8.164;2023-04-20T04:44:53;99648.09;;;5.24;63.72
16777;BME280;8505;49.456;8.164;2023-04-20T04:47:22;99643.91;;;5.31;63.19
16777;BME280;8505;49.456;8.164;2023-04-20T04:49:51;99650.03;;;5.22;63.33
16777;BME280;8505;49.456;8.164;2023-04-20T04:52:18;99649.31;;;5.49;62.56
16777;BME280;8505;49.456;8.164;2023-04-20T04:54:46;99644.19;;;5.47;62.71
16777;BME280;8505;49.456;8.164;2023-04-20T04:57:14;99648.38;;;5.31;63.04
16777;BME280;8505;49.456;8.164;2023-04-20T04:59:42;99635.88;;;5.52;62.57
16777;BME280;8505;49.456;8.164;2023-04-20T05:02:10;99644.22;;;5.28;63.62
16777;BME280;8505;49.456;8.164;2023-04-20T05:04:38;99642.69;;;5.25;63.71
16777;BME280;8505;49.456;8.164;2023-04-20T05:07:07;99652.38;;;5.35;64.22
16777;BME280;8505;49.456;8.164;2023-04-20T05:09:36;99653.19;;;5.25;64.55
16777;BME280;8505;49.456;8.164;2023-04-20T05:12:05;99649.16;;;5.41;63.97
16777;BME280;8505;49.456;8.164;2023-04-20T05:14:33;99654.81;;;5.55;63.70
16777;BME280;8505;49.456;8.164;2023-04-20T05:17:01;99654.28;;;5.42;64.25
16777;BME280;8505;49.456;8.164;2023-04-20T05:19:28;99646.94;;;5.55;64.30
16777;BME280;8505;49.456;8.164;2023-04-20T05:21:56;99655.06;;;5.62;63.93
16777;BME280;8505;49.456;8.164;2023-04-20T05:24:25;99650.94;;;5.59;64.47
16777;BME280;8505;49.456;8.164;2023-04-20T05:26:53;99655.66;;;5.46;64.59
16777;BME280;8505;49.456;8.164;2023-04-20T05:29:21;99651.47;;;5.63;65.21
16777;BME280;8505;49.456;8.164;2023-04-20T05:31:48;99660.50;;;5.41;66.18
16777;BME280;8505;49.456;8.164;2023-04-20T05:34:16;99657.59;;;5.54;65.68
16777;BME280;8505;49.456;8.164;2023-04-20T05:36:45;99656.34;;;5.39;65.96
16777;BME280;8505;49.456;8.164;2023-04-20T05:39:13;99653.44;;;5.51;66.26
16777;BME280;8505;49.456;8.164;2023-04-20T05:41:42;99658.56;;;5.43;66.52
16777;BME280;8505;49.456;8.164;2023-04-20T05:44:10;99657.72;;;5.52;66.95
16777;BME280;8505;49.456;8.164;2023-04-20T05:46:37;99653.81;;;5.56;66.63
16777;BME280;8505;49.456;8.164;2023-04-20T05:49:05;99654.97;;;5.54;66.81
16777;BME280;8505;49.456;8.164;2023-04-20T05:51:33;99651.06;;;5.58;67.70
16777;BME280;8505;49.456;8.164;2023-04-20T05:54:00;99653.28;;;5.53;67.74
16777;BME280;8505;49.456;8.164;2023-04-20T05:56:28;99642.09;;;5.60;67.68
16777;BME280;8505;49.456;8.164;2023-04-20T05:58:58;99646.25;;;5.44;68.40
16777;BME280;8505;49.456;8.164;2023-04-20T06:01:26;99643.88;;;5.50;68.96
16777;BME280;8505;49.456;8.164;2023-04-20T06:03:53;99646.66;;;5.58;68.63
16777;BME280;8505;49.456;8.164;2023-04-20T06:06:22;99650.97;;;5.40;69.50
16777;BME280;8505;49.456;8.164;2023-04-20T06:08:49;99638.06;;;5.66;68.69
16777;BME280;8505;49.456;8.164;2023-04-20T06:11:17;99641.66;;;5.65;69.16
16777;BME280;8505;49.456;8.164;2023-04-20T06:13:45;99651.28;;;5.74;69.50
16777;BME280;8505;49.456;8.164;2023-04-20T06:16:14;99649.13;;;5.60;69.82
16777;BME280;8505;49.456;8.164;2023-04-20T06:18:42;99652.81;;;5.77;69.31
16777;BME280;8505;49.456;8.164;2023-04-20T06:21:12;99647.13;;;5.81;69.61
16777;BME280;8505;49.456;8.164;2023-04-20T06:23:40;99641.31;;;5.97;68.87
16777;BME280;8505;49.456;8.164;2023-04-20T06:26:07;99645.78;;;6.14;69.21
16777;BME280;8505;49.456;8.164;2023-04-20T06:28:35;99645.44;;;5.99;69.63
16777;BME280;8505;49.456;8.164;2023-04-20T06:31:04;99637.91;;;6.14;69.79
16777;BME280;8505;49.456;8.164;2023-04-20T06:33:33;99630.53;;;6.18;69.33
16777;BME280;8505;49.456;8.164;2023-04-20T06:36:01;99645.25;;;6.38;69.19
16777;BME280;8505;49.456;8.164;2023-04-20T06:38:28;99641.16;;;6.26;69.08
16777;BME280;8505;49.456;8.164;2023-04-20T06:40:56;99638.47;;;6.63;68.44
16777;BME280;8505;49.456;8.164;2023-04-20T06:43:27;99644.88;;;6.60;68.68
16777;BME280;8505;49.456;8.164;2023-04-20T06:45:55;99636.66;;;6.81;68.15
16777;BME280;8505;49.456;8.164;2023-04-20T06:48:23;99634.84;;;7.17;70.34
16777;BME280;8505;49.456;8.164;2023-04-20T06:50:59;99640.03;;;6.73;69.33
16777;BME280;8505;49.456;8.164;2023-04-20T06:53:27;99639.41;;;7.50;66.37
16777;BME280;8505;49.456;8.164;2023-04-20T06:55:56;99644.03;;;8.42;64.63
16777;BME280;8505;49.456;8.164;2023-04-20T06:58:23;99643.72;;;7.59;65.45
16777;BME280;8505;49.456;8.164;2023-04-20T07:00:51;99635.78;;;7.77;65.63
16777;BME280;8505;49.456;8.164;2023-04-20T07:03:19;99636.72;;;7.68;66.49
16777;BME280;8505;49.456;8.164;2023-04-20T07:05:47;99639.19;;;7.95;65.07
16777;BME280;8505;49.456;8.164;2023-04-20T07:08:16;99640.31;;;7.93;65.26
16777;BME280;8505;49.456;8.164;2023-04-20T07:10:43;99637.06;;;7.73;66.13
16777;BME280;8505;49.456;8.164;2023-04-20T07:13:11;99637.41;;;7.78;65.80
16777;BME280;8505;49.456;8.164;2023-04-20T07:15:39;99631.56;;;8.26;64.03
16777;BME280;8505;49.456;8.164;2023-04-20T07:18:08;99628.06;;;8.18;63.76
16777;BME280;8505;49.456;8.164;2023-04-20T07:20:36;99639.53;;;9.17;61.38
16777;BME280;8505;49.456;8.164;2023-04-20T07:23:04;99635.38;;;9.63;59.57
16777;BME280;8505;49.456;8.164;2023-04-20T07:25:33;99639.81;;;9.79;58.21
16777;BME280;8505;49.456;8.164;2023-04-20T07:28:01;99636.25;;;9.23;59.60
16777;BME280;8505;49.456;8.164;2023-04-20T07:30:29;99635.06;;;9.01;60.75
16777;BME280;8505;49.456;8.164;2023-04-20T07:32:57;99628.47;;;8.97;61.17
16777;BME280;8505;49.456;8.164;2023-04-20T07:35:25;99632.16;;;8.46;62.20
16777;BME280;8505;49.456;8.164;2023-04-20T07:37:53;99633.06;;;8.79;62.22
16777;BME280;8505;49.456;8.164;2023-04-20T07:40:21;99622.03;;;8.91;61.94
16777;BME280;8505;49.456;8.164;2023-04-20T07:42:50;99631.91;;;8.81;62.75
16777;BME280;8505;49.456;8.164;2023-04-20T07:45:18;99636.25;;;9.07;61.34
16777;BME280;8505;49.456;8.164;2023-04-20T07:47:47;99638.31;;;9.84;59.55
16777;BME280;8505;49.456;8.164;2023-04-20T07:50:17;99638.84;;;9.71;59.67
16777;BME280;8505;49.456;8.164;2023-04-20T07:52:44;99638.44;;;9.99;57.96
16777;BME280;8505;49.456;8.164;2023-04-20T07:55:12;99641.84;;;9.68;59.19
16777;BME280;8505;49.456;8.164;2023-04-20T07:57:41;99634.09;;;10.61;55.73
16777;BME280;8505;49.456;8.164;2023-04-20T08:00:11;99632.41;;;11.51;53.28
16777;BME280;8505;49.456;8.164;2023-04-20T08:02:40;99616.56;;;11.43;53.17
16777;BME280;8505;49.456;8.164;2023-04-20T08:05:08;99624.69;;;11.04;53.41
16777;BME280;8505;49.456;8.164;2023-04-20T08:07:37;99611.47;;;11.56;52.11
16777;BME280;8505;49.456;8.164;2023-04-20T08:10:05;99622.16;;;11.48;52.35
16777;BME280;8505;49.456;8.164;2023-04-20T08:12:33;99606.09;;;12.23;49.36
16777;BME280;8505;49.456;8.164;2023-04-20T08:15:01;99603.25;;;12.39;48.29
16777;BME280;8505;49.456;8.164;2023-04-20T08:17:33;99606.72;;;11.52;52.06
16777;BME280;8505;49.456;8.164;2023-04-20T08:20:01;99612.66;;;11.16;52.41
16777;BME280;8505;49.456;8.164;2023-04-20T08:22:31;99611.38;;;10.89;53.54
16777;BME280;8505;49.456;8.164;2023-04-20T08:24:59;99609.31;;;10.07;55.68
16777;BME280;8505;49.456;8.164;2023-04-20T08:27:27;99612.44;;;9.39;58.35
16777;BME280;8505;49.456;8.164;2023-04-20T08:29:56;99595.84;;;9.78;57.86
16777;BME280;8505;49.456;8.164;2023-04-20T08:32:24;99608.97;;;9.39;58.37
16777;BME280;8505;49.456;8.164;2023-04-20T08:34:54;99604.41;;;10.43;56.67
16777;BME280;8505;49.456;8.164;2023-04-20T08:37:22;99594.25;;;10.77;54.96
16777;BME280;8505;49.456;8.164;2023-04-20T08:39:50;99587.50;;;11.35;53.09
16777;BME280;8505;49.456;8.164;2023-04-20T08:42:18;99593.19;;;11.09;53.27
16777;BME280;8505;49.456;8.164;2023-04-20T08:44:46;99594.28;;;11.15;52.52
16777;BME280;8505;49.456;8.164;2023-04-20T08:47:14;99586.16;;;11.16;52.47
16777;BME280;8505;49.456;8.164;2023-04-20T08:49:43;99587.56;;;11.27;52.71
16777;BME280;8505;49.456;8.164;2023-04-20T08:52:12;99583.25;;;11.26;53.30
16777;BME280;8505;49.456;8.164;2023-04-20T08:54:40;99585.94;;;11.78;52.40
16777;BME280;8505;49.456;8.164;2023-04-20T08:57:22;99582.16;;;11.20;53.09
16777;BME280;8505;49.456;8.164;2023-04-20T08:59:51;99580.66;;;11.03;54.17
16777;BME280;8505;49.456;8.164;2023-04-20T09:02:19;99574.50;;;11.03;54.30
16777;BME280;8505;49.456;8.164;2023-04-20T09:04:47;99570.88;;;12.14;51.06
16777;BME280;8505;49.456;8.164;2023-04-20T09:07:18;99569.97;;;12.07;50.89
16777;BME280;8505;49.456;8.164;2023-04-20T09:09:55;99576.16;;;11.56;52.20
16777;BME280;8505;49.456;8.164;2023-04-20T09:12:23;99575.06;;;12.38;49.70
16777;BME280;8505;49.456;8.164;2023-04-20T09:14:52;99562.56;;;13.17;48.56
16777;BME280;8505;49.456;8.164;2023-04-20T09:17:30;99559.25;;;13.71;47.12
16777;BME280;8505;49.456;8.164;2023-04-20T09:19:58;99561.72;;;14.13;46.04
16777;BME280;8505;49.456;8.164;2023-04-20T09:22:31;99564.28;;;12.82;48.77
16777;BME280;8505;49.456;8.164;2023-04-20T09:25:00;99555.63;;;13.78;47.13
16777;BME280;8505;49.456;8.164;2023-04-20T09:27:27;99563.06;;;13.96;46.34
16777;BME280;8505;49.456;8.164;2023-04-20T09:29:56;99556.66;;;13.84;46.89
16777;BME280;8505;49.456;8.164;2023-04-20T09:32:25;99559.19;;;12.66;49.13
16777;BME280;8505;49.456;8.164;2023-04-20T09:34:54;99552.81;;;12.25;51.35
16777;BME280;8505;49.456;8.164;2023-04-20T09:37:22;99548.13;;;12.63;49.70
16777;BME280;8505;49.456;8.164;2023-04-20T09:39:54;99544.81;;;13.52;47.36
16777;BME280;8505;49.456;8.164;2023-04-20T09:42:27;99549.50;;;13.22;48.13
16777;BME280;8505;49.456;8.164;2023-04-20T09:44:56;99547.75;;;13.08;46.66
16777;BME280;8505;49.456;8.164;2023-04-20T09:47:24;99541.56;;;14.45;45.35
16777;BME280;8505;49.456;8.164;2023-04-20T09:49:53;99533.13;;;13.19;47.60
16777;BME280;8505;49.456;8.164;2023-04-20T09:52:22;99533.47;;;13.37;47.04
16777;BME280;8505;49.456;8.164;2023-04-20T09:54:53;99524.19;;;13.26;48.81
16777;BME280;8505;49.456;8.164;2023-04-20T09:57:22;99523.34;;;14.01;47.13
16777;BME280;8505;49.456;8.164;2023-04-20T09:59:53;99530.56;;;13.66;48.21
16777;BME280;8505;49.456;8.164;2023-04-20T10:02:21;99510.44;;;15.31;44.89
16777;BME280;8505;49.456;8.164;2023-04-20T10:04:53;99509.63;;;14.65;45.82
16777;BME280;8505;49.456;8.164;2023-04-20T10:07:24;99507.81;;;15.05;44.67
16777;BME280;8505;49.456;8.164;2023-04-20T10:10:08;99512.13;;;14.86;44.46
16777;BME280;8505;49.456;8.164;2023-04-20T10:12:47;99510.78;;;14.30;44.21
16777;BME280;8505;49.456;8.164;2023-04-20T10:15:15;99519.53;;;12.86;48.25
16777;BME280;8505;49.456;8.164;2023-04-20T10:17:44;99515.75;;;13.23;48.52
16777;BME280;8505;49.456;8.164;2023-04-20T10:20:18;99513.56;;;13.05;48.58
16777;BME280;8505;49.456;8.164;2023-04-20T10:22:46;99511.25;;;13.92;47.30
16777;BME280;8505;49.456;8.164;2023-04-20T10:25:17;99508.28;;;13.40;47.92
16777;BME280;8505;49.456;8.164;2023-04-20T10:27:53;99514.66;;;12.68;48.68
16777;BME280;8505;49.456;8.164;2023-04-20T10:30:22;99511.00;;;12.48;49.70
16777;BME280;8505;49.456;8.164;2023-04-20T10:33:04;99502.75;;;13.07;49.42
16777;BME280;8505;49.456;8.164;2023-04-20T10:35:46;99508.47;;;12.61;50.28
16777;BME280;8505;49.456;8.164;2023-04-20T10:38:14;99501.19;;;12.27;51.94
16777;BME280;8505;49.456;8.164;2023-04-20T10:40:44;99497.94;;;12.95;49.75
16777;BME280;8505;49.456;8.164;2023-04-20T10:43:18;99498.59;;;12.55;51.93
16777;BME280;8505;49.456;8.164;2023-04-20T10:45:47;99478.69;;;13.49;49.23
16777;BME280;8505;49.456;8.164;2023-04-20T10:48:15;99488.66;;;13.75;48.53
16777;BME280;8505;49.456;8.164;2023-04-20T10:50:44;99493.84;;;13.14;50.10
16777;BME280;8505;49.456;8.164;2023-04-20T10:53:19;99491.81;;;12.95;49.81
16777;BME280;8505;49.456;8.164;2023-04-20T10:55:58;99478.16;;;13.26;50.10
16777;BME280;8505;49.456;8.164;2023-04-20T10:58:26;99475.25;;;12.72;51.27
16777;BME280;8505;49.456;8.164;2023-04-20T11:00:58;99474.19;;;13.15;50.96
16777;BME280;8505;49.456;8.164;2023-04-20T11:03:27;99472.34;;;12.03;52.65
16777;BME280;8505;49.456;8.164;2023-04-20T11:05:56;99478.19;;;12.77;51.80
16777;BME280;8505;49.456;8.164;2023-04-20T11:08:36;99451.91;;;13.51;49.40
16777;BME280;8505;49.456;8.164;2023-04-20T11:11:16;99454.56;;;13.16;48.80
16777;BME280;8505;49.456;8.164;2023-04-20T11:13:44;99440.28;;;14.26;47.55
16777;BME280;8505;49.456;8.164;2023-04-20T11:16:12;99443.22;;;14.44;46.70
16777;BME280;8505;49.456;8.164;2023-04-20T11:18:48;99439.94;;;14.62;45.93
16777;BME280;8505;49.456;8.164;2023-04-20T11:21:18;99425.06;;;15.31;44.71
16777;BME280;8505;49.456;8.164;2023-04-20T11:23:47;99423.81;;;15.41;43.35
16777;BME280;8505;49.456;8.164;2023-04-20T11:26:16;99426.69;;;15.39;43.71
16777;BME280;8505;49.456;8.164;2023-04-20T11:28:51;99413.81;;;15.29;43.28
16777;BME280;8505;49.456;8.164;2023-04-20T11:31:21;99418.53;;;14.22;46.04
16777;BME280;8505;49.456;8.164;2023-04-20T11:33:49;99422.56;;;13.10;48.84
16777;BME280;8505;49.456;8.164;2023-04-20T11:36:18;99422.44;;;12.83;49.67
16777;BME280;8505;49.456;8.164;2023-04-20T11:38:47;99414.59;;;12.75;49.93
16777;BME280;8505;49.456;8.164;2023-04-20T11:41:17;99417.84;;;13.33;49.56
16777;BME280;8505;49.456;8.164;2023-04-20T11:43:44;99413.47;;;13.19;50.11
16777;BME280;8505;49.456;8.164;2023-04-20T11:46:13;99404.06;;;13.57;47.88
16777;BME280;8505;49.456;8.164;2023-04-20T11:48:42;99416.03;;;13.88;46.91
16777;BME280;8505;49.456;8.164;2023-04-20T11:51:10;99407.50;;;14.25;44.95
16777;BME280;8505;49.456;8.164;2023-04-20T11:53:38;99401.13;;;14.33;45.67
16777;BME280;8505;49.456;8.164;2023-04-20T11:56:06;99395.19;;;14.11;45.79
16777;BME280;8505;49.456;8.164;2023-04-20T11:58:36;99392.91;;;14.08;46.65
16777;BME280;8505;49.456;8.164;2023-04-20T12:01:04;99387.22;;;13.44;48.12
16777;BME280;8505;49.456;8.164;2023-04-20T12:03:32;99390.25;;;13.95;47.25
16777;BME280;8505;49.456;8.164;2023-04-20T12:06:00;99388.16;;;13.90;46.93
16777;BME280;8505;49.456;8.164;2023-04-20T12:08:28;99386.00;;;13.53;47.88
16777;BME280;8505;49.456;8.164;2023-04-20T12:10:56;99396.34;;;13.89;47.36
16777;BME280;8505;49.456;8.164;2023-04-20T12:13:24;99386.72;;;13.81;46.96
16777;BME280;8505;49.456;8.164;2023-04-20T12:15:53;99386.09;;;13.25;47.40
16777;BME280;8505;49.456;8.164;2023-04-20T12:18:21;99381.88;;;13.44;47.38
16777;BME280;8505;49.456;8.164;2023-04-20T12:20:49;99383.28;;;13.33;47.10
16777;BME280;8505;49.456;8.164;2023-04-20T12:23:17;99387.69;;;12.57;49.77
16777;BME280;8505;49.456;8.164;2023-04-20T12:25:44;99398.31;;;12.36;50.93
16777;BME280;8505;49.456;8.164;2023-04-20T12:28:12;99399.38;;;12.41;50.81
16777;BME280;8505;49.456;8.164;2023-04-20T12:30:40;99405.69;;;12.34;52.39
16777;BME280;8505;49.456;8.164;2023-04-20T12:33:10;99414.69;;;11.31;58.84
16777;BME280;8505;49.456;8.164;2023-04-20T12:35:38;99440.13;;;11.26;62.00
16777;BME280;8505;49.456;8.164;2023-04-20T12:38:05;99454.38;;;11.40;62.19
16777;BME280;8505;49.456;8.164;2023-04-20T12:40:34;99461.13;;;10.98;63.15
16777;BME280;8505;49.456;8.164;2023-04-20T12:43:01;99446.22;;;10.97;63.04
16777;BME280;8505;49.456;8.164;2023-04-20T12:45:29;99439.66;;;10.55;63.58
16777;BME280;8505;49.456;8.164;2023-04-20T12:47:57;99434.50;;;10.39;63.83
16777;BME280;8505;49.456;8.164;2023-04-20T12:50:27;99423.28;;;9.84;63.89
16777;BME280;8505;49.456;8.164;2023-04-20T12:52:55;99429.69;;;9.89;69.23
16777;BME280;8505;49.456;8.164;2023-04-20T12:55:24;99436.38;;;9.77;72.98
16777;BME280;8505;49.456;8.164;2023-04-20T12:57:52;99435.25;;;9.71;73.27
16777;BME280;8505;49.456;8.164;2023-04-20T13:00:20;99430.31;;;9.29;70.90
16777;BME280;8505;49.456;8.164;2023-04-20T13:02:48;99433.03;;;9.05;72.59
16777;BME280;8505;49.456;8.164;2023-04-20T13:05:16;99454.91;;;9.30;74.85
16777;BME280;8505;49.456;8.164;2023-04-20T13:07:46;99449.78;;;9.37;75.04
16777;BME280;8505;49.456;8.164;2023-04-20T13:10:14;99463.44;;;9.48;75.08
16777;BME280;8505;49.456;8.164;2023-04-20T13:12:42;99460.22;;;9.22;75.06
16777;BME280;8505;49.456;8.164;2023-04-20T13:15:10;99462.63;;;9.40;75.34
16777;BME280;8505;49.456;8.164;2023-04-20T13:17:38;99462.78;;;8.67;79.72
16777;BME280;8505;49.456;8.164;2023-04-20T13:20:07;99473.81;;;8.78;79.87
16777;BME280;8505;49.456;8.164;2023-04-20T13:22:38;99473.81;;;8.95;78.57
16777;BME280;8505;49.456;8.164;2023-04-20T13:25:24;99470.78;;;9.30;78.13